Time;durP1;ratioP1;P1;durP2;ratioP2;P2;SDS_P1;SDS_P2;PMS_P1;PMS_P2;Temp;Humidity;BMP_temperature;BMP_pressure;BME280_temperature;BME280_humidity;BME280_pressure;Samples;Min_cycle;Max_cycle;Signal;HPM_P1;HPM_P2
2021/07/18 00:01:17;;;;;;;3.13;2.17;;;22.50;79.30;;;;;;5052178;28;20650;-51
2021/07/18 00:03:44;;;;;;;4.20;2.17;;;22.50;79.50;;;;;;5052075;28;20664;-50
2021/07/18 00:06:11;;;;;;;5.73;2.60;;;22.50;79.40;;;;;;5051075;28;20703;-51
2021/07/18 00:08:39;;;;;;;3.23;2.93;;;22.50;79.60;;;;;;5032132;28;21188;-49
2021/07/18 00:11:06;;;;;;;3.80;2.70;;;22.50;79.80;;;;;;5032004;28;20662;-51
2021/07/18 00:13:33;;;;;;;5.93;4.50;;;22.40;79.60;;;;;;5032214;28;20654;-51
2021/07/18 00:16:02;;;;;;;4.20;3.30;;;22.40;79.60;;;;;;5031690;28;20706;-50
2021/07/18 00:18:29;;;;;;;4.03;3.10;;;22.40;80.00;;;;;;5032159;28;20752;-51
2021/07/18 00:20:56;;;;;;;4.23;3.43;;;22.40;79.80;;;;;;5032751;28;20638;-52
2021/07/18 00:23:23;;;;;;;3.70;2.70;;;22.40;80.50;;;;;;5033066;28;20666;-50
2021/07/18 00:25:50;;;;;;;2.77;2.50;;;22.30;80.70;;;;;;5032831;28;20725;-52
2021/07/18 00:28:18;;;;;;;3.20;3.00;;;22.30;80.70;;;;;;5033028;28;20686;-50
2021/07/18 00:30:45;;;;;;;3.00;2.03;;;22.20;80.70;;;;;;5032634;28;20661;-51
2021/07/18 00:33:14;;;;;;;4.20;2.80;;;22.20;80.80;;;;;;5041695;28;20683;-52
2021/07/18 00:35:41;;;;;;;3.97;3.10;;;22.20;80.80;;;;;;5052716;28;20697;-51
2021/07/18 00:38:08;;;;;;;3.60;3.00;;;22.10;80.90;;;;;;5052337;28;20705;-51
2021/07/18 00:40:35;;;;;;;3.17;2.13;;;22.10;81.90;;;;;;5052803;28;20658;-49
2021/07/18 00:43:03;;;;;;;2.80;2.60;;;22.10;81.50;;;;;;5052084;28;20646;-51
2021/07/18 00:45:31;;;;;;;2.97;2.67;;;22.00;81.50;;;;;;5052568;28;20635;-51
2021/07/18 00:47:58;;;;;;;2.90;2.60;;;22.00;81.80;;;;;;5052005;28;21253;-51
2021/07/18 00:50:27;;;;;;;3.10;2.90;;;22.00;81.90;;;;;;5052379;28;20661;-51
2021/07/18 00:52:54;;;;;;;3.37;2.50;;;22.00;82.30;;;;;;5052167;28;20650;-51
2021/07/18 00:55:22;;;;;;;4.30;3.40;;;21.90;82.40;;;;;;5052398;28;20692;-51
2021/07/18 00:57:49;;;;;;;4.20;2.70;;;21.90;82.80;;;;;;5052518;28;21067;-51
2021/07/18 01:00:17;;;;;;;3.50;2.37;;;21.90;83.30;;;;;;5051882;28;21211;-51
2021/07/18 01:02:45;;;;;;;6.03;3.20;;;21.80;83.30;;;;;;5051878;28;20994;-48
2021/07/18 01:05:14;;;;;;;4.13;2.17;;;21.80;83.40;;;;;;5051463;28;20622;-50
2021/07/18 01:07:42;;;;;;;4.00;2.60;;;21.90;83.50;;;;;;5052172;28;20696;-49
2021/07/18 01:10:11;;;;;;;4.33;2.43;;;21.70;83.20;;;;;;5051893;28;21035;-49
2021/07/18 01:12:38;;;;;;;7.80;3.17;;;21.70;83.30;;;;;;5052378;28;20666;-50
2021/07/18 01:15:06;;;;;;;2.77;2.57;;;21.70;83.40;;;;;;5051725;28;20911;-50
2021/07/18 01:17:33;;;;;;;2.93;2.30;;;21.60;83.40;;;;;;5052104;28;20694;-50
2021/07/18 01:20:02;;;;;;;3.90;2.70;;;21.60;83.10;;;;;;5051922;28;20661;-50
2021/07/18 01:22:30;;;;;;;3.60;2.30;;;21.60;83.10;;;;;;5051744;28;20658;-50
2021/07/18 01:24:57;;;;;;;3.20;2.40;;;21.60;82.80;;;;;;5052040;28;21191;-50
2021/07/18 01:27:25;;;;;;;2.97;2.57;;;21.70;82.90;;;;;;5051390;28;20688;-50
2021/07/18 01:29:52;;;;;;;4.77;2.10;;;21.60;83.40;;;;;;5051616;28;20665;-50
2021/07/18 01:32:19;;;;;;;4.70;2.63;;;21.60;83.10;;;;;;5051289;28;21018;-49
2021/07/18 01:34:47;;;;;;;3.00;2.70;;;21.50;83.40;;;;;;5051602;28;21280;-50
2021/07/18 01:37:14;;;;;;;2.63;2.10;;;21.50;83.80;;;;;;5051587;28;20693;-50
2021/07/18 01:39:43;;;;;;;4.60;2.80;;;21.40;84.20;;;;;;5051399;28;20636;-49
2021/07/18 01:42:10;;;;;;;3.40;2.80;;;21.40;84.60;;;;;;5051046;28;20668;-49
2021/07/18 01:44:37;;;;;;;3.33;2.50;;;21.40;84.70;;;;;;5051607;28;21141;-49
2021/07/18 01:47:06;;;;;;;3.47;2.40;;;21.30;84.90;;;;;;5051549;28;20791;-49
2021/07/18 01:49:33;;;;;;;6.53;4.50;;;21.30;85.20;;;;;;5051386;28;21164;-48
2021/07/18 01:52:00;;;;;;;3.10;2.80;;;21.20;85.50;;;;;;5051977;28;21041;-48
2021/07/18 01:54:27;;;;;;;4.00;2.83;;;21.20;85.50;;;;;;5051674;28;20630;-48
2021/07/18 01:56:56;;;;;;;4.57;2.33;;;21.20;85.70;;;;;;5050915;28;20723;-49
2021/07/18 01:59:23;;;;;;;4.10;2.90;;;21.20;86.00;;;;;;5051574;28;21205;-49
2021/07/18 02:01:50;;;;;;;4.40;3.03;;;21.20;86.20;;;;;;5051397;28;20718;-48
2021/07/18 02:04:17;;;;;;;4.93;2.60;;;21.20;86.30;;;;;;5052046;28;20689;-49
2021/07/18 02:06:45;;;;;;;2.60;2.27;;;21.20;86.10;;;;;;5051257;28;21070;-49
2021/07/18 02:09:12;;;;;;;4.63;2.67;;;21.20;86.10;;;;;;5051445;28;20650;-49
2021/07/18 02:11:40;;;;;;;5.50;3.60;;;21.20;86.00;;;;;;5051749;28;20618;-49
2021/07/18 02:14:09;;;;;;;2.77;2.53;;;21.10;86.10;;;;;;5051900;28;20651;-49
2021/07/18 02:16:36;;;;;;;2.87;2.40;;;21.10;86.60;;;;;;5051443;28;21077;-49
2021/07/18 02:19:07;;;;;;;4.27;2.93;;;21.00;86.80;;;;;;5051520;28;20626;-49
2021/07/18 02:21:34;;;;;;;7.20;2.90;;;21.00;87.10;;;;;;5051525;28;20629;-49
2021/07/18 02:24:01;;;;;;;3.20;2.40;;;21.00;87.30;;;;;;5051910;28;21024;-49
2021/07/18 02:26:29;;;;;;;3.20;2.73;;;21.00;87.50;;;;;;5051327;28;20657;-49
2021/07/18 02:28:57;;;;;;;6.60;3.10;;;20.90;87.40;;;;;;5052020;28;20653;-49
2021/07/18 02:31:25;;;;;;;3.13;2.87;;;20.90;87.30;;;;;;5055578;28;21039;-49
2021/07/18 02:33:52;;;;;;;4.33;3.83;;;20.90;87.30;;;;;;5055549;28;20666;-49
2021/07/18 02:36:20;;;;;;;3.33;2.80;;;20.90;87.10;;;;;;5055396;28;21078;-49
2021/07/18 02:38:47;;;;;;;3.90;2.03;;;20.90;87.00;;;;;;5055042;28;21015;-48
2021/07/18 02:41:14;;;;;;;2.50;2.17;;;21.00;87.10;;;;;;5055143;28;20662;-49
2021/07/18 02:43:41;;;;;;;3.23;2.30;;;20.80;87.20;;;;;;5054856;28;20672;-49
2021/07/18 02:46:08;;;;;;;2.70;2.50;;;20.80;87.50;;;;;;5054461;28;20669;-48
2021/07/18 02:48:37;;;;;;;4.23;3.37;;;20.80;87.80;;;;;;5054802;28;20707;-50
2021/07/18 02:51:05;;;;;;;2.30;2.10;;;20.80;87.90;;;;;;5054183;28;20688;-49
2021/07/18 02:53:32;;;;;;;4.77;2.87;;;20.80;87.90;;;;;;5055026;28;20668;-49
2021/07/18 02:55:59;;;;;;;4.53;2.73;;;20.80;88.00;;;;;;5054384;28;20697;-50
2021/07/18 02:58:27;;;;;;;2.77;2.37;;;20.70;88.20;;;;;;5054826;28;21239;-51
2021/07/18 03:00:54;;;;;;;5.03;3.13;;;20.70;88.40;;;;;;5054070;28;20687;-51
2021/07/18 03:03:21;;;;;;;6.27;2.63;;;20.70;88.40;;;;;;5054453;28;20656;-51
2021/07/18 03:05:49;;;;;;;8.13;3.43;;;20.70;88.50;;;;;;5054553;28;20664;-50
2021/07/18 03:08:17;;;;;;;3.43;2.27;;;20.70;88.60;;;;;;5054174;28;20716;-51
2021/07/18 03:10:44;;;;;;;3.00;2.63;;;20.70;88.50;;;;;;5054356;28;20676;-50
2021/07/18 03:13:11;;;;;;;5.40;2.20;;;20.70;88.70;;;;;;5054129;28;21030;-50
2021/07/18 03:15:38;;;;;;;3.50;3.13;;;20.70;88.70;;;;;;5054057;28;20712;-51
2021/07/18 03:18:08;;;;;;;3.20;2.03;;;20.70;88.80;;;;;;5053730;28;20658;-50
2021/07/18 03:20:35;;;;;;;2.23;2.03;;;20.70;88.80;;;;;;5054423;28;20653;-49
2021/07/18 03:23:04;;;;;;;3.67;2.33;;;20.70;88.80;;;;;;5053774;28;20654;-49
2021/07/18 03:25:31;;;;;;;3.67;2.73;;;20.60;88.80;;;;;;5054260;28;20634;-49
2021/07/18 03:27:58;;;;;;;4.80;2.33;;;20.60;89.40;;;;;;5053770;28;20689;-49
2021/07/18 03:30:26;;;;;;;3.77;1.90;;;20.60;89.20;;;;;;5053965;28;20668;-51
2021/07/18 03:32:53;;;;;;;3.67;2.40;;;20.60;89.50;;;;;;5053460;28;20762;-50
2021/07/18 03:35:20;;;;;;;3.00;2.47;;;20.60;89.80;;;;;;5053513;28;20660;-49
2021/07/18 03:37:47;;;;;;;4.47;2.83;;;20.60;89.90;;;;;;5053391;28;21116;-48
2021/07/18 03:40:17;;;;;;;3.70;2.57;;;20.50;90.00;;;;;;5036098;28;20667;-48
2021/07/18 03:42:44;;;;;;;3.00;2.47;;;20.50;90.00;;;;;;5033208;28;20654;-50
2021/07/18 03:45:12;;;;;;;6.93;2.70;;;20.50;89.90;;;;;;5033421;28;20654;-50
2021/07/18 03:47:39;;;;;;;3.27;2.97;;;20.50;90.00;;;;;;5048502;28;21156;-49
2021/07/18 03:50:07;;;;;;;5.53;2.50;;;20.50;90.00;;;;;;5053625;28;20666;-49
2021/07/18 03:52:35;;;;;;;4.17;3.07;;;20.50;90.00;;;;;;5053635;28;21190;-49
2021/07/18 03:55:02;;;;;;;3.00;2.23;;;20.50;90.00;;;;;;5053483;28;20661;-50
2021/07/18 03:57:30;;;;;;;2.93;2.57;;;20.50;90.10;;;;;;5053587;28;20705;-49
2021/07/18 03:59:58;;;;;;;4.27;2.67;;;20.50;90.20;;;;;;5053696;28;20672;-49
2021/07/18 04:02:25;;;;;;;3.60;2.80;;;20.50;90.30;;;;;;5053127;28;20629;-50
2021/07/18 04:04:52;;;;;;;3.73;2.23;;;20.50;90.40;;;;;;5053503;28;20630;-50
2021/07/18 04:07:19;;;;;;;7.20;2.17;;;20.50;90.40;;;;;;5033963;28;20643;-50
2021/07/18 04:09:46;;;;;;;3.93;2.93;;;20.50;90.40;;;;;;5033926;28;20714;-50
2021/07/18 04:12:14;;;;;;;3.37;2.50;;;20.50;90.50;;;;;;5033248;28;20693;-50
2021/07/18 04:14:42;;;;;;;2.97;2.33;;;20.50;90.50;;;;;;5033197;28;20661;-51
2021/07/18 04:17:09;;;;;;;2.67;2.33;;;20.50;90.40;;;;;;5036545;28;20696;-48
2021/07/18 04:19:37;;;;;;;6.00;2.83;;;20.40;90.30;;;;;;5038405;28;20663;-49
2021/07/18 04:22:04;;;;;;;3.00;2.70;;;20.50;90.80;;;;;;5032957;28;20659;-48
2021/07/18 04:24:32;;;;;;;6.80;2.30;;;20.40;90.50;;;;;;5033204;28;21207;-50
2021/07/18 04:26:59;;;;;;;2.63;2.43;;;20.50;90.70;;;;;;5050425;28;20689;-48
2021/07/18 04:29:26;;;;;;;3.87;2.70;;;20.40;90.60;;;;;;5053065;28;20650;-49
2021/07/18 04:31:55;;;;;;;2.97;2.40;;;20.40;90.70;;;;;;5052118;28;20668;-50
2021/07/18 04:34:22;;;;;;;2.83;2.23;;;20.40;90.80;;;;;;5052847;28;20645;-49
2021/07/18 04:36:49;;;;;;;5.10;3.00;;;20.40;90.80;;;;;;5052197;28;20689;-50
2021/07/18 04:39:16;;;;;;;4.00;2.53;;;20.40;90.90;;;;;;5052457;28;20695;-50
2021/07/18 04:41:43;;;;;;;7.20;2.70;;;20.40;91.00;;;;;;5052277;28;20656;-49
2021/07/18 04:44:11;;;;;;;11.70;2.97;;;20.40;91.10;;;;;;5051856;28;21049;-49
2021/07/18 04:46:38;;;;;;;5.13;3.10;;;20.40;91.20;;;;;;5048978;28;21065;-49
2021/07/18 04:49:06;;;;;;;5.97;2.97;;;20.40;91.10;;;;;;5052485;28;20669;-49
2021/07/18 04:51:34;;;;;;;11.20;3.47;;;20.40;91.10;;;;;;5051868;28;20653;-50
2021/07/18 04:54:01;;;;;;;2.83;2.53;;;20.40;91.20;;;;;;5052199;28;20658;-49
2021/07/18 04:56:28;;;;;;;3.23;2.53;;;20.40;91.30;;;;;;5052101;28;20686;-49
2021/07/18 04:58:55;;;;;;;3.43;3.00;;;20.40;91.50;;;;;;5052363;28;20658;-51
2021/07/18 05:01:22;;;;;;;4.50;2.77;;;20.40;91.60;;;;;;5051893;28;21190;-51
2021/07/18 05:03:49;;;;;;;3.57;2.70;;;20.40;91.60;;;;;;5044691;28;21184;-51
2021/07/18 05:06:18;;;;;;;4.00;2.80;;;20.40;91.60;;;;;;5043147;28;20677;-51
2021/07/18 05:08:45;;;;;;;3.80;2.57;;;20.40;91.60;;;;;;5049489;28;20661;-50
2021/07/18 05:11:12;;;;;;;2.30;2.10;;;20.40;91.60;;;;;;5041625;28;21194;-50
2021/07/18 05:13:40;;;;;;;2.90;2.47;;;20.40;91.50;;;;;;5051169;28;20642;-49
2021/07/18 05:16:07;;;;;;;4.53;2.43;;;20.40;91.50;;;;;;5051433;28;20665;-51
2021/07/18 05:18:34;;;;;;;4.03;1.93;;;20.40;91.60;;;;;;5051640;28;20685;-51
2021/07/18 05:21:02;;;;;;;3.30;2.40;;;20.40;91.60;;;;;;5051611;28;21033;-51
2021/07/18 05:23:30;;;;;;;3.70;2.90;;;20.40;91.60;;;;;;5051544;28;20672;-50
2021/07/18 05:25:58;;;;;;;3.93;2.83;;;20.40;91.70;;;;;;5051595;28;20669;-51
2021/07/18 05:28:25;;;;;;;3.50;3.20;;;20.40;91.70;;;;;;5051282;28;20650;-51
2021/07/18 05:30:52;;;;;;;5.80;3.10;;;20.50;91.80;;;;;;5050847;28;20656;-51
2021/07/18 05:33:19;;;;;;;3.40;2.23;;;20.50;91.90;;;;;;5050019;28;20626;-51
2021/07/18 05:35:46;;;;;;;3.97;2.50;;;20.50;91.90;;;;;;5049963;28;21217;-50
2021/07/18 05:38:14;;;;;;;2.67;2.10;;;20.50;92.00;;;;;;5050172;28;20753;-50
2021/07/18 05:40:42;;;;;;;4.30;2.97;;;20.60;92.10;;;;;;5051218;28;20657;-49
2021/07/18 05:43:10;;;;;;;2.60;2.40;;;20.60;92.10;;;;;;5050987;28;20660;-51
2021/07/18 05:45:38;;;;;;;4.17;2.93;;;20.60;92.20;;;;;;5051162;28;20666;-51
2021/07/18 05:48:05;;;;;;;2.77;2.50;;;20.60;92.20;;;;;;5050331;28;21006;-51
2021/07/18 05:50:33;;;;;;;3.50;2.23;;;20.70;92.20;;;;;;5051784;28;20618;-51
2021/07/18 05:53:00;;;;;;;2.50;1.90;;;20.70;92.20;;;;;;5050992;28;21191;-51
2021/07/18 05:55:27;;;;;;;6.50;2.90;;;20.70;92.30;;;;;;5051395;28;20621;-51
2021/07/18 05:57:56;;;;;;;5.03;2.70;;;20.70;92.30;;;;;;5031011;28;20709;-51
2021/07/18 06:00:23;;;;;;;6.37;2.13;;;20.70;92.20;;;;;;5031415;28;21227;-49
2021/07/18 06:02:50;;;;;;;3.03;2.27;;;20.70;92.30;;;;;;5031106;28;20673;-50
2021/07/18 06:05:17;;;;;;;2.60;2.40;;;20.70;92.40;;;;;;5034138;28;20636;-50
2021/07/18 06:07:44;;;;;;;6.03;3.07;;;20.80;92.40;;;;;;5050960;28;20685;-50
2021/07/18 06:10:13;;;;;;;6.03;2.70;;;20.80;92.30;;;;;;5050944;28;20657;-50
2021/07/18 06:12:40;;;;;;;2.70;2.17;;;20.90;92.40;;;;;;5050980;28;20661;-50
2021/07/18 06:15:09;;;;;;;3.33;2.73;;;20.90;92.30;;;;;;5050673;28;20668;-50
2021/07/18 06:17:37;;;;;;;2.57;2.27;;;20.90;92.30;;;;;;5050349;28;21089;-50
2021/07/18 06:20:08;;;;;;;3.80;2.70;;;21.00;92.30;;;;;;5050432;28;20622;-52
2021/07/18 06:22:35;;;;;;;4.20;2.10;;;21.00;92.30;;;;;;5051183;28;20660;-52
2021/07/18 06:25:03;;;;;;;3.50;1.87;;;21.00;92.30;;;;;;5050753;28;20657;-51
2021/07/18 06:27:30;;;;;;;2.73;2.20;;;21.00;92.40;;;;;;5050934;28;20681;-52
2021/07/18 06:29:57;;;;;;;3.70;1.93;;;21.00;92.30;;;;;;5051551;28;21228;-52
2021/07/18 06:32:27;;;;;;;4.03;2.70;;;21.10;92.20;;;;;;5049335;28;20654;-51
2021/07/18 06:34:54;;;;;;;3.50;2.60;;;21.20;92.10;;;;;;5040484;28;20689;-51
2021/07/18 06:37:21;;;;;;;2.60;2.30;;;21.10;92.00;;;;;;5050099;28;20698;-52
2021/07/18 06:39:49;;;;;;;3.50;2.50;;;21.20;92.00;;;;;;5050480;28;21230;-51
2021/07/18 06:42:18;;;;;;;4.00;2.60;;;21.20;91.80;;;;;;5050969;28;20640;-51
2021/07/18 06:44:45;;;;;;;2.60;2.13;;;21.20;91.80;;;;;;5050758;28;20646;-50
2021/07/18 06:47:12;;;;;;;3.13;2.10;;;21.20;91.80;;;;;;5050766;28;20641;-51
2021/07/18 06:49:40;;;;;;;5.57;2.73;;;21.30;91.90;;;;;;5051110;28;20662;-50
2021/07/18 06:52:08;;;;;;;2.40;2.20;;;21.30;91.90;;;;;;5050643;28;21053;-50
2021/07/18 06:54:35;;;;;;;2.20;2.00;;;21.50;91.60;;;;;;5050655;28;20654;-50
2021/07/18 06:57:02;;;;;;;3.23;2.27;;;21.40;91.20;;;;;;5050516;28;20689;-51
2021/07/18 06:59:29;;;;;;;2.83;2.50;;;21.40;91.10;;;;;;5050466;28;20650;-51
2021/07/18 07:01:56;;;;;;;3.73;2.87;;;21.40;91.00;;;;;;5050900;28;20661;-51
2021/07/18 07:04:24;;;;;;;3.33;2.33;;;21.40;91.00;;;;;;5050904;28;20666;-52
2021/07/18 07:06:52;;;;;;;4.60;2.27;;;21.40;90.80;;;;;;5050591;28;20761;-51
2021/07/18 07:09:19;;;;;;;3.57;2.17;;;21.50;90.70;;;;;;5049090;28;20653;-49
2021/07/18 07:11:47;;;;;;;9.60;2.60;;;21.50;90.60;;;;;;5050250;28;21017;-49
2021/07/18 07:14:14;;;;;;;2.00;1.80;;;21.40;90.60;;;;;;5050446;28;20658;-50
2021/07/18 07:16:41;;;;;;;2.53;1.80;;;21.60;90.50;;;;;;5053950;28;21252;-51
2021/07/18 07:19:10;;;;;;;2.17;1.73;;;21.60;90.70;;;;;;5054065;28;20700;-51
2021/07/18 07:21:37;;;;;;;2.53;2.20;;;21.60;90.40;;;;;;5054458;28;21004;-51
2021/07/18 07:24:06;;;;;;;4.30;1.90;;;21.70;90.20;;;;;;5054053;28;20668;-49
2021/07/18 07:26:33;;;;;;;2.33;2.07;;;21.70;89.80;;;;;;5053910;28;20682;-49
2021/07/18 07:29:00;;;;;;;3.17;2.37;;;21.80;89.40;;;;;;5053864;28;20662;-49
2021/07/18 07:31:28;;;;;;;1.70;1.40;;;22.00;89.10;;;;;;5053943;28;20650;-50
2021/07/18 07:33:55;;;;;;;2.70;1.77;;;22.10;89.00;;;;;;5053807;28;20646;-49
2021/07/18 07:36:22;;;;;;;2.40;2.13;;;22.20;88.10;;;;;;5053423;28;20662;-49
2021/07/18 07:38:49;;;;;;;2.77;1.73;;;22.30;87.40;;;;;;5053660;28;20677;-49
2021/07/18 07:41:18;;;;;;;2.17;1.97;;;22.40;87.00;;;;;;5053708;28;20618;-50
2021/07/18 07:43:45;;;;;;;2.37;2.17;;;22.60;87.10;;;;;;5053572;28;21006;-49
2021/07/18 07:46:12;;;;;;;2.37;2.03;;;22.60;85.10;;;;;;5053455;28;21099;-50
2021/07/18 07:48:39;;;;;;;3.13;1.70;;;22.70;85.00;;;;;;5052746;28;20686;-49
2021/07/18 07:51:07;;;;;;;2.90;2.20;;;22.80;84.00;;;;;;5051599;28;21570;-50
2021/07/18 07:53:34;;;;;;;2.00;1.50;;;22.90;83.00;;;;;;5053179;28;20658;-48
2021/07/18 07:56:01;;;;;;;1.67;1.57;;;23.00;82.30;;;;;;5053054;28;20656;-50
2021/07/18 07:58:30;;;;;;;6.30;2.00;;;23.10;81.90;;;;;;5053196;28;21117;-50
2021/07/18 08:00:57;;;;;;;2.43;1.53;;;23.20;81.80;;;;;;5052987;28;20662;-50
2021/07/18 08:03:25;;;;;;;2.57;1.57;;;23.30;81.70;;;;;;5052590;28;20976;-50
2021/07/18 08:05:52;;;;;;;2.27;1.60;;;23.40;81.50;;;;;;5053069;28;20626;-49
2021/07/18 08:08:19;;;;;;;3.50;1.97;;;23.50;81.90;;;;;;5052741;28;20703;-50
2021/07/18 08:10:46;;;;;;;1.87;1.50;;;23.50;80.60;;;;;;5053666;28;20713;-49
2021/07/18 08:13:14;;;;;;;2.33;2.13;;;23.60;80.40;;;;;;5052362;28;20661;-48
2021/07/18 08:15:42;;;;;;;3.73;2.00;;;23.60;79.60;;;;;;5052824;28;20652;-51
2021/07/18 08:18:09;;;;;;;5.87;1.97;;;23.70;79.30;;;;;;5053113;28;21254;-50
2021/07/18 08:20:37;;;;;;;6.27;2.97;;;23.70;78.40;;;;;;5052785;28;20657;-50
2021/07/18 08:23:04;;;;;;;3.07;2.07;;;23.80;78.70;;;;;;5052461;28;21273;-50
2021/07/18 08:25:32;;;;;;;2.40;2.20;;;23.90;78.10;;;;;;5052771;28;20618;-51
2021/07/18 08:27:59;;;;;;;3.13;2.20;;;23.90;77.20;;;;;;5051943;28;20887;-49
2021/07/18 08:30:26;;;;;;;5.23;1.93;;;23.90;77.10;;;;;;5052783;28;20631;-50
2021/07/18 08:32:55;;;;;;;3.57;2.50;;;23.90;76.90;;;;;;5052649;28;20626;-50
2021/07/18 08:35:22;;;;;;;2.43;2.23;;;23.80;77.00;;;;;;5052742;28;20637;-50
2021/07/18 08:37:49;;;;;;;2.90;2.00;;;23.80;76.90;;;;;;5052510;28;20662;-49
2021/07/18 08:40:16;;;;;;;7.90;2.27;;;23.70;76.20;;;;;;5052639;28;20626;-48
2021/07/18 08:42:44;;;;;;;4.23;1.87;;;23.80;78.20;;;;;;5051948;28;21015;-48
2021/07/18 08:45:12;;;;;;;6.07;2.40;;;23.80;76.80;;;;;;5053231;28;20633;-47
2021/07/18 08:47:39;;;;;;;2.60;2.33;;;23.90;76.10;;;;;;5052831;28;21217;-47
2021/07/18 08:50:09;;;;;;;3.63;2.50;;;24.00;76.30;;;;;;5052868;28;20987;-48
2021/07/18 08:52:36;;;;;;;2.60;1.90;;;24.00;75.00;;;;;;5053009;28;20640;-48
2021/07/18 08:55:04;;;;;;;4.80;2.20;;;24.00;75.80;;;;;;5051332;28;20629;-47
2021/07/18 08:57:32;;;;;;;1.70;1.50;;;24.10;75.60;;;;;;5051595;28;20673;-47
2021/07/18 08:59:59;;;;;;;5.07;2.33;;;24.00;76.20;;;;;;5051793;28;20716;-47
2021/07/18 09:02:26;;;;;;;3.33;2.07;;;24.00;76.70;;;;;;5051719;28;20638;-48
2021/07/18 09:04:53;;;;;;;7.80;2.27;;;24.10;76.90;;;;;;5049995;28;20660;-47
2021/07/18 09:07:22;;;;;;;5.80;2.33;;;24.20;76.10;;;;;;5049238;28;20646;-48
2021/07/18 09:09:49;;;;;;;1.70;1.43;;;24.20;76.80;;;;;;5051920;28;20660;-47
2021/07/18 09:12:19;;;;;;;3.83;1.70;;;24.20;75.80;;;;;;5053202;28;20771;-47
2021/07/18 09:14:47;;;;;;;3.07;1.67;;;24.20;76.10;;;;;;5052910;28;20618;-49
2021/07/18 09:17:16;;;;;;;3.30;1.70;;;24.20;76.80;;;;;;5051324;28;21296;-48
2021/07/18 09:19:44;;;;;;;3.33;1.83;;;24.40;75.30;;;;;;5051293;28;21070;-48
2021/07/18 09:22:15;;;;;;;4.03;2.53;;;24.40;75.80;;;;;;5050736;28;21175;-47
2021/07/18 09:24:46;;;;;;;4.07;2.53;;;24.40;74.70;;;;;;5051137;28;20651;-48
2021/07/18 09:27:15;;;;;;;2.30;1.97;;;24.30;75.50;;;;;;5051181;28;20658;-47
2021/07/18 09:29:44;;;;;;;1.77;1.60;;;24.40;75.30;;;;;;5051476;28;21059;-48
2021/07/18 09:32:13;;;;;;;5.27;2.57;;;24.50;75.60;;;;;;5051145;28;20631;-48
2021/07/18 09:34:42;;;;;;;2.50;1.97;;;24.70;74.80;;;;;;5051191;28;20641;-47
2021/07/18 09:37:12;;;;;;;3.90;3.07;;;24.90;73.20;;;;;;5050505;28;21139;-47
2021/07/18 09:39:40;;;;;;;6.07;1.87;;;25.00;72.90;;;;;;5050397;28;20646;-48
2021/07/18 09:42:09;;;;;;;2.10;1.67;;;25.10;71.00;;;;;;5051195;28;20641;-47
2021/07/18 09:44:43;;;;;;;2.90;2.13;;;25.00;72.00;;;;;;5051862;28;21175;-48
2021/07/18 09:47:11;;;;;;;2.40;1.80;;;25.00;72.60;;;;;;5050934;28;20654;-48
2021/07/18 09:49:38;;;;;;;5.80;2.00;;;24.90;72.10;;;;;;5050901;28;20652;-49
2021/07/18 09:52:16;;;;;;;4.27;1.90;;;24.90;70.40;;;;;;5051039;28;20625;-48
2021/07/18 09:54:43;;;;;;;2.20;1.77;;;24.80;71.90;;;;;;5051426;28;20629;-48
2021/07/18 09:57:11;;;;;;;2.83;2.30;;;24.80;71.90;;;;;;5051613;28;21060;-48
2021/07/18 09:59:41;;;;;;;1.60;1.40;;;25.10;72.20;;;;;;5050571;28;20650;-48
2021/07/18 10:02:08;;;;;;;2.70;1.60;;;24.90;70.80;;;;;;5050987;28;21046;-48
2021/07/18 10:04:39;;;;;;;2.07;1.63;;;24.90;71.20;;;;;;5050355;28;20682;-47
2021/07/18 10:07:07;;;;;;;2.83;1.80;;;24.90;72.00;;;;;;5050870;28;20662;-48
2021/07/18 10:09:34;;;;;;;3.40;1.90;;;24.90;71.10;;;;;;5050996;28;20626;-49
2021/07/18 10:12:01;;;;;;;1.77;1.67;;;24.90;71.40;;;;;;5050594;28;20688;-49
2021/07/18 10:14:30;;;;;;;5.07;2.00;;;24.90;70.80;;;;;;5050711;28;20622;-49
2021/07/18 10:16:58;;;;;;;2.70;1.50;;;24.80;71.40;;;;;;5050067;28;20658;-48
2021/07/18 10:19:25;;;;;;;2.33;1.60;;;24.90;71.70;;;;;;5050408;28;20719;-47
2021/07/18 10:21:52;;;;;;;2.77;1.57;;;24.90;71.00;;;;;;5049383;28;20744;-48
2021/07/18 10:24:19;;;;;;;3.20;1.80;;;24.90;70.00;;;;;;5047401;28;20660;-48
2021/07/18 10:26:46;;;;;;;1.87;1.77;;;25.00;71.10;;;;;;5047667;28;20653;-47
2021/07/18 10:29:14;;;;;;;5.07;3.00;;;25.00;71.20;;;;;;5050217;28;20732;-48
2021/07/18 10:31:45;;;;;;;2.37;2.03;;;25.00;70.70;;;;;;5050139;28;20691;-48
2021/07/18 10:34:12;;;;;;;3.37;2.33;;;24.90;72.20;;;;;;5050449;28;21033;-49
2021/07/18 10:36:39;;;;;;;3.20;1.40;;;25.10;73.00;;;;;;5050519;28;20665;-48
2021/07/18 10:39:28;;;;;;;2.17;1.67;;;25.10;71.90;;;;;;5050190;28;20654;-49
2021/07/18 10:41:55;;;;;;;1.50;1.37;;;25.10;71.40;;;;;;5050269;28;20626;-49
2021/07/18 10:44:22;;;;;;;2.80;1.60;;;25.20;71.40;;;;;;5049955;28;21037;-50
2021/07/18 10:47:00;;;;;;;9.13;2.47;;;25.20;71.40;;;;;;5050135;28;20715;-49
2021/07/18 10:49:50;;;;;;;2.47;1.93;;;25.20;72.70;;;;;;5049845;28;21233;-49
2021/07/18 10:52:17;;;;;;;3.43;1.90;;;25.20;73.00;;;;;;5053707;28;20622;-49
2021/07/18 10:54:44;;;;;;;3.10;1.70;;;25.30;73.70;;;;;;5054010;28;20677;-49
2021/07/18 10:57:25;;;;;;;3.70;2.53;;;25.30;73.50;;;;;;5054508;28;20718;-48
2021/07/18 10:59:53;;;;;;;2.00;1.80;;;25.40;73.90;;;;;;5053659;28;20760;-48
2021/07/18 11:02:22;;;;;;;2.03;1.60;;;25.40;73.90;;;;;;5054058;28;21167;-48
2021/07/18 11:04:49;;;;;;;2.00;1.90;;;25.40;71.40;;;;;;5053385;28;20625;-49
2021/07/18 11:07:34;;;;;;;2.30;1.60;;;25.40;72.50;;;;;;5050922;28;21268;-49
2021/07/18 11:10:11;;;;;;;2.80;2.00;;;25.50;71.90;;;;;;5053396;28;20625;-49
2021/07/18 11:12:39;;;;;;;2.80;2.60;;;25.40;69.20;;;;;;5052957;28;20630;-49
2021/07/18 11:15:31;;;;;;;2.40;2.10;;;25.50;71.10;;;;;;5053161;28;20691;-49
2021/07/18 11:18:02;;;;;;;2.60;1.73;;;25.50;68.90;;;;;;5048082;28;20754;-50
2021/07/18 11:20:39;;;;;;;2.00;1.83;;;25.70;72.30;;;;;;5053110;28;20662;-49
2021/07/18 11:23:07;;;;;;;2.80;1.83;;;25.60;69.10;;;;;;5053315;28;20630;-51
2021/07/18 11:25:48;;;;;;;5.93;5.40;;;25.60;71.80;;;;;;5054631;28;20728;-52
2021/07/18 11:28:49;;;;;;;4.57;2.10;;;25.50;68.90;;;;;;5054117;28;20680;-50
2021/07/18 11:31:25;;;;;;;3.93;1.47;;;25.50;68.00;;;;;;5053316;28;20686;-49
2021/07/18 11:33:58;;;;;;;3.90;2.27;;;25.50;66.90;;;;;;5053111;28;20634;-51
2021/07/18 11:36:53;;;;;;;2.80;1.57;;;25.60;66.70;;;;;;5053418;28;21037;-50
2021/07/18 11:39:21;;;;;;;2.90;1.47;;;25.60;67.30;;;;;;5053475;28;20618;-52
2021/07/18 11:41:48;;;;;;;2.17;1.70;;;25.70;67.40;;;;;;5054463;28;20625;-52
2021/07/18 11:44:16;;;;;;;2.30;1.27;;;25.80;66.80;;;;;;5053038;28;20618;-52
2021/07/18 11:46:44;;;;;;;3.80;1.43;;;25.80;65.50;;;;;;5054860;28;20654;-52
2021/07/18 11:49:13;;;;;;;4.73;2.10;;;25.90;64.70;;;;;;5053873;28;21193;-51
2021/07/18 11:51:41;;;;;;;3.23;1.77;;;26.00;64.50;;;;;;5049674;28;20694;-51
2021/07/18 11:54:10;;;;;;;2.07;1.63;;;26.00;64.60;;;;;;5035003;28;20681;-53
2021/07/18 11:56:38;;;;;;;4.03;1.90;;;26.00;64.50;;;;;;5032956;28;20666;-51
2021/07/18 11:59:06;;;;;;;4.30;3.93;;;26.00;64.40;;;;;;5049652;28;20672;-48
2021/07/18 12:01:34;;;;;;;2.00;1.80;;;26.10;64.30;;;;;;5051011;28;20690;-49
2021/07/18 12:04:01;;;;;;;2.17;1.70;;;26.20;64.20;;;;;;5052231;28;20680;-50
2021/07/18 12:06:30;;;;;;;3.17;1.50;;;26.30;64.60;;;;;;5050739;28;20684;-50
2021/07/18 12:09:00;;;;;;;2.00;1.43;;;26.40;65.00;;;;;;5052635;28;21235;-51
2021/07/18 12:11:28;;;;;;;2.57;1.70;;;26.40;62.90;;;;;;5051827;28;20618;-51
2021/07/18 12:13:55;;;;;;;4.60;2.03;;;26.50;61.90;;;;;;5051762;28;21228;-50
2021/07/18 12:16:25;;;;;;;3.00;1.90;;;26.50;61.10;;;;;;5052070;28;20688;-52
2021/07/18 12:18:53;;;;;;;4.00;1.97;;;26.50;61.70;;;;;;5046700;28;20680;-52
2021/07/18 12:21:21;;;;;;;2.33;1.97;;;26.50;62.60;;;;;;5042230;28;20689;-51
2021/07/18 12:24:18;;;;;;;4.07;2.17;;;26.50;63.10;;;;;;5031860;28;20712;-51
2021/07/18 12:26:46;;;;;;;1.93;1.73;;;26.60;61.80;;;;;;5031990;28;20687;-52
2021/07/18 12:29:14;;;;;;;2.43;1.83;;;26.60;63.00;;;;;;5045687;28;20618;-52
2021/07/18 12:31:41;;;;;;;2.80;1.90;;;26.60;62.10;;;;;;5050447;28;20676;-53
2021/07/18 12:34:09;;;;;;;2.20;2.00;;;26.70;61.70;;;;;;5052160;28;20626;-53
2021/07/18 12:36:52;;;;;;;1.73;1.63;;;26.70;61.40;;;;;;5051064;28;20749;-52
2021/07/18 12:39:22;;;;;;;1.80;1.70;;;26.80;59.50;;;;;;5051963;28;20711;-53
2021/07/18 12:41:50;;;;;;;6.13;2.87;;;26.80;59.40;;;;;;5050563;28;21214;-54
2021/07/18 12:44:19;;;;;;;3.80;2.60;;;26.80;59.70;;;;;;5052012;28;21243;-52
2021/07/18 12:46:47;;;;;;;2.70;1.87;;;26.90;59.90;;;;;;5050442;28;20712;-52
2021/07/18 12:49:14;;;;;;;2.17;1.67;;;27.00;59.80;;;;;;5052274;28;20618;-53
2021/07/18 12:51:41;;;;;;;2.73;1.40;;;27.00;60.90;;;;;;5052479;28;20614;-55
2021/07/18 12:54:09;;;;;;;5.03;2.53;;;27.10;59.70;;;;;;5052390;28;20634;-49